Terminal Aerodrome Forecast
Issued by NWS Portland, OR

Home | Current Version | Previous Version | Text Only | Print | Product List | Glossary On
Versions: 1 2 3 4 5 6 7 8 9 10 11 12 13 14 15 16 17 18 19 20 21 22 23 24 25 26 27 28 29 30 31 32 33 34 35 36 37 38 39 40 41 42
905
FTUS46 KPQR 091833 AAA
TAFEUG
TAF AMD
KEUG 091833Z 0919/1018 VRB04KT 1SM BR BCFG BKN001
     FM091930 VRB04KT P6SM SKC
     FM100700 VRB03KT 3SM BR BKN250
     FM100800 VRB03KT 1/2SM FG OVC002=

USA.gov is the U.S. government's official web portal to all federal, state and local government web resources and services.